createdAt,value
2018-06-19T00:01:30.994Z,11.30
2018-06-19T00:03:59.819Z,10.50
2018-06-19T00:06:28.710Z,11.07
2018-06-19T00:08:57.598Z,10.47
2018-06-19T00:11:26.207Z,9.83
2018-06-19T00:13:54.937Z,9.00
2018-06-19T00:16:23.689Z,9.20
2018-06-19T00:18:56.818Z,7.80
2018-06-19T00:21:35.458Z,7.40
2018-06-19T00:24:04.511Z,7.20
2018-06-19T00:26:33.306Z,8.27
2018-06-19T00:29:02.026Z,7.83
2018-06-19T00:31:30.661Z,7.27
2018-06-19T00:33:59.273Z,8.07
2018-06-19T00:36:27.845Z,7.53
2018-06-19T00:38:56.351Z,7.00
2018-06-19T00:41:24.871Z,6.83
2018-06-19T00:43:53.456Z,6.63
2018-06-19T00:46:24.543Z,7.07
2018-06-19T00:48:53.054Z,7.33
2018-06-19T00:51:21.686Z,7.27
2018-06-19T00:53:50.183Z,7.47
2018-06-19T00:57:01.030Z,7.83
2018-06-19T00:59:29.578Z,8.50
2018-06-19T01:01:59.736Z,8.43
2018-06-19T01:04:28.278Z,8.07
2018-06-19T01:06:56.895Z,9.50
2018-06-19T01:09:25.378Z,8.37
2018-06-19T01:11:54.063Z,8.70
2018-06-19T01:14:22.563Z,9.60
2018-06-19T01:16:51.118Z,8.90
2018-06-19T01:19:19.667Z,9.23
2018-06-19T01:21:48.170Z,10.33
2018-06-19T01:24:17.334Z,10.00
2018-06-19T01:26:45.877Z,10.07
2018-06-19T01:29:14.852Z,9.93
2018-06-19T01:31:43.358Z,9.83
2018-06-19T01:34:11.838Z,10.13
2018-06-19T01:36:40.423Z,10.43
2018-06-19T01:39:10.418Z,9.60
2018-06-19T01:41:38.905Z,10.20
2018-06-19T01:44:07.659Z,10.33
2018-06-19T01:46:36.144Z,9.40
2018-06-19T01:49:04.863Z,10.40
2018-06-19T01:51:33.373Z,9.87
2018-06-19T01:54:01.914Z,10.50
2018-06-19T01:56:30.463Z,10.03
2018-06-19T01:58:58.955Z,9.90
2018-06-19T02:01:27.474Z,10.13
2018-06-19T02:03:56.107Z,11.80
2018-06-19T02:06:24.631Z,9.60
2018-06-19T02:08:53.100Z,10.00
2018-06-19T02:11:21.647Z,10.23
2018-06-19T02:13:50.171Z,10.23
2018-06-19T02:16:18.781Z,8.90
2018-06-19T02:18:47.282Z,8.83
2018-06-19T02:21:15.862Z,9.23
2018-06-19T02:23:44.455Z,9.70
2018-06-19T02:26:12.969Z,8.80
2018-06-19T02:28:41.470Z,8.73
2018-06-19T02:31:10.036Z,11.60
2018-06-19T02:33:38.566Z,8.80
2018-06-19T02:36:07.056Z,8.70
2018-06-19T02:38:35.583Z,8.37
2018-06-19T02:41:04.206Z,8.50
2018-06-19T02:43:32.708Z,8.57
2018-06-19T02:46:01.226Z,7.67
2018-06-19T02:48:29.793Z,9.30
2018-06-19T02:50:59.306Z,9.83
2018-06-19T02:53:27.773Z,9.10
2018-06-19T02:55:56.307Z,8.87
2018-06-19T02:58:24.769Z,7.80
2018-06-19T03:00:53.264Z,8.70
2018-06-19T03:03:21.822Z,7.73
2018-06-19T03:05:50.303Z,7.60
2018-06-19T03:08:18.915Z,8.10
2018-06-19T03:10:47.453Z,8.27
2018-06-19T03:13:15.978Z,7.30
2018-06-19T03:15:44.481Z,7.83
2018-06-19T03:18:12.994Z,7.90
2018-06-19T03:20:41.603Z,7.57
2018-06-19T03:23:10.130Z,8.80
2018-06-19T03:25:38.609Z,7.30
2018-06-19T03:28:07.110Z,7.83
2018-06-19T03:30:35.660Z,7.50
2018-06-19T03:33:04.139Z,8.20
2018-06-19T03:35:32.608Z,6.60
2018-06-19T03:38:01.151Z,7.37
2018-06-19T03:40:29.632Z,7.90
2018-06-19T03:42:58.151Z,7.80
2018-06-19T03:45:26.826Z,7.67
2018-06-19T03:47:55.327Z,7.30
2018-06-19T03:50:24.188Z,7.23
2018-06-19T03:52:52.708Z,7.07
2018-06-19T03:55:21.198Z,6.57
2018-06-19T03:57:49.868Z,8.43
2018-06-19T04:00:18.670Z,7.33
2018-06-19T04:02:47.182Z,7.07
2018-06-19T04:05:15.794Z,7.53
2018-06-19T04:07:44.334Z,6.80
2018-06-19T04:10:13.030Z,6.77
2018-06-19T04:12:41.533Z,7.73
2018-06-19T04:15:10.060Z,8.70
2018-06-19T04:17:39.216Z,6.93
2018-06-19T04:20:07.762Z,7.07
2018-06-19T04:22:36.313Z,6.73
2018-06-19T04:25:04.907Z,6.43
2018-06-19T04:27:33.829Z,6.33
2018-06-19T04:30:02.342Z,6.70
2018-06-19T04:32:30.889Z,7.13
2018-06-19T04:34:59.411Z,7.50
2018-06-19T04:37:27.915Z,8.07
2018-06-19T04:39:57.065Z,7.43
2018-06-19T04:42:26.287Z,7.20
2018-06-19T04:44:55.509Z,7.50
2018-06-19T04:47:24.014Z,6.53
2018-06-19T04:49:52.647Z,6.33
2018-06-19T04:52:21.157Z,6.10
2018-06-19T04:54:49.642Z,6.70
2018-06-19T04:57:18.207Z,6.73
2018-06-19T04:59:46.835Z,6.60
2018-06-19T05:02:15.360Z,6.97
2018-06-19T05:04:43.890Z,7.43
2018-06-19T05:07:12.451Z,6.37
2018-06-19T05:09:41.535Z,6.47
2018-06-19T05:12:10.048Z,6.60
2018-06-19T05:14:38.900Z,6.60
2018-06-19T05:17:07.451Z,7.50
2018-06-19T05:19:36.007Z,8.00
2018-06-19T05:22:04.572Z,7.63
2018-06-19T05:24:33.087Z,7.27
2018-06-19T05:27:01.615Z,7.63
2018-06-19T05:29:30.151Z,6.40
2018-06-19T05:31:58.831Z,7.73
2018-06-19T05:34:27.371Z,7.43
2018-06-19T05:36:59.755Z,7.53
2018-06-19T05:39:28.326Z,7.43
2018-06-19T05:41:57.267Z,7.90
2018-06-19T05:44:25.897Z,7.60
2018-06-19T05:46:54.551Z,8.43
2018-06-19T05:49:23.061Z,10.70
2018-06-19T05:51:52.336Z,8.70
2018-06-19T05:54:20.838Z,8.97
2018-06-19T05:56:49.866Z,8.20
2018-06-19T05:59:18.396Z,9.43
2018-06-19T06:01:46.920Z,9.10
2018-06-19T06:04:16.133Z,11.33
2018-06-19T06:06:44.678Z,9.60
2018-06-19T06:09:13.187Z,10.40
2018-06-19T06:11:41.819Z,10.23
2018-06-19T06:14:12.018Z,10.10
2018-06-19T06:16:41.068Z,9.93
2018-06-19T06:19:09.567Z,10.27
2018-06-19T06:21:38.076Z,10.37
2018-06-19T06:24:06.730Z,9.60
2018-06-19T06:26:35.281Z,10.10
2018-06-19T06:29:04.753Z,9.80
2018-06-19T06:31:33.338Z,9.97
2018-06-19T06:34:01.907Z,10.47
2018-06-19T06:36:30.426Z,10.53
2018-06-19T06:38:59.023Z,10.83
2018-06-19T06:41:27.582Z,10.23
2018-06-19T06:43:56.112Z,11.13
2018-06-19T06:46:24.660Z,11.40
2018-06-19T06:48:53.210Z,12.10
2018-06-19T06:51:21.846Z,11.30
2018-06-19T06:53:51.926Z,10.53
2018-06-19T06:56:20.446Z,11.47
2018-06-19T06:58:49.565Z,12.20
2018-06-19T07:01:18.133Z,10.67
2018-06-19T07:03:46.655Z,12.70
2018-06-19T07:06:15.187Z,12.10
2018-06-19T07:08:43.863Z,11.43
2018-06-19T07:11:12.386Z,13.17
2018-06-19T07:13:40.927Z,12.20
2018-06-19T07:16:09.491Z,14.37
2018-06-19T07:18:38.102Z,14.50
2018-06-19T07:21:06.946Z,14.30
2018-06-19T07:23:35.469Z,14.60
2018-06-19T07:26:04.039Z,16.40
2018-06-19T07:28:32.564Z,16.43
2018-06-19T07:31:01.131Z,15.63
2018-06-19T07:33:29.658Z,16.30
2018-06-19T07:35:59.077Z,14.57
2018-06-19T07:38:27.749Z,15.03
2018-06-19T07:40:56.214Z,14.50
2018-06-19T07:43:24.771Z,15.40
2018-06-19T07:45:53.300Z,15.87
2018-06-19T07:48:21.819Z,18.70
2018-06-19T07:50:51.212Z,15.60
2018-06-19T07:53:20.456Z,14.67
2018-06-19T07:55:49.394Z,16.50
2018-06-19T07:58:17.915Z,17.80
2018-06-19T08:00:46.491Z,17.40
2018-06-19T08:03:15.064Z,17.10
2018-06-19T08:05:43.604Z,16.20
2018-06-19T08:08:12.508Z,17.70
2018-06-19T08:10:41.535Z,16.03
2018-06-19T08:13:10.067Z,17.90
2018-06-19T08:15:38.628Z,18.23
2018-06-19T08:18:08.776Z,19.60
2018-06-19T08:20:37.283Z,19.20
2018-06-19T08:23:05.880Z,21.67
2018-06-19T08:25:34.394Z,18.67
2018-06-19T08:28:02.971Z,21.07
2018-06-19T08:30:31.478Z,21.03
2018-06-19T08:33:00.017Z,22.20
2018-06-19T08:35:28.591Z,22.17
2018-06-19T08:37:57.099Z,21.13
2018-06-19T08:40:25.631Z,20.57
2018-06-19T08:42:54.159Z,19.67
2018-06-19T08:45:22.710Z,21.10
2018-06-19T08:47:51.228Z,22.63
2018-06-19T08:50:20.023Z,22.60
2018-06-19T08:52:48.563Z,21.33
2018-06-19T08:55:18.117Z,21.70
2018-06-19T08:57:46.670Z,23.40
2018-06-19T09:00:15.349Z,22.50
2018-06-19T09:02:43.880Z,21.13
2018-06-19T09:05:12.437Z,20.63
2018-06-19T09:07:40.946Z,22.50
2018-06-19T09:10:09.942Z,21.93
2018-06-19T09:12:38.478Z,20.23
2018-06-19T09:15:07.094Z,18.53
2018-06-19T09:17:35.687Z,18.57
2018-06-19T09:20:04.284Z,20.50
2018-06-19T09:22:32.843Z,18.70
2018-06-19T09:25:01.363Z,19.53
2018-06-19T09:27:29.875Z,17.67
2018-06-19T09:29:58.381Z,19.83
2018-06-19T09:32:26.915Z,19.00
2018-06-19T09:34:55.416Z,20.40
2018-06-19T09:37:24.346Z,19.07
2018-06-19T09:39:53.715Z,19.63
2018-06-19T09:42:22.238Z,18.10
2018-06-19T09:44:50.816Z,17.87
2018-06-19T09:47:19.338Z,18.83
2018-06-19T09:49:47.911Z,18.30
2018-06-19T09:52:16.806Z,17.53
2018-06-19T09:54:45.435Z,18.23
2018-06-19T09:57:13.930Z,17.60
2018-06-19T09:59:42.706Z,16.93
2018-06-19T10:02:11.519Z,15.50
2018-06-19T10:04:40.055Z,15.97
2018-06-19T10:07:08.726Z,16.20
2018-06-19T10:09:37.359Z,16.27
2018-06-19T10:12:05.986Z,14.27
2018-06-19T10:14:34.594Z,14.30
2018-06-19T10:17:03.126Z,12.30
2018-06-19T10:19:32.736Z,11.97
2018-06-19T10:22:01.226Z,13.17
2018-06-19T10:24:29.780Z,12.70
2018-06-19T10:26:58.672Z,12.63
2018-06-19T10:29:27.195Z,10.93
2018-06-19T10:31:55.846Z,11.70
2018-06-19T10:34:24.542Z,12.40
2018-06-19T10:36:53.063Z,12.30
2018-06-19T10:39:21.572Z,11.80
2018-06-19T10:41:50.451Z,11.13
2018-06-19T10:44:18.998Z,11.47
2018-06-19T10:46:47.891Z,12.03
2018-06-19T10:49:16.411Z,12.47
2018-06-19T10:51:45.382Z,13.20
2018-06-19T10:54:13.915Z,12.00
2018-06-19T10:56:42.452Z,11.70
2018-06-19T10:59:10.987Z,11.27
2018-06-19T11:01:39.502Z,12.30
2018-06-19T11:04:08.429Z,11.60
2018-06-19T11:06:36.984Z,11.20
2018-06-19T11:09:08.418Z,11.80
2018-06-19T11:11:37.043Z,11.67
2018-06-19T11:14:05.667Z,9.67
2018-06-19T11:16:34.167Z,10.27
2018-06-19T11:19:02.749Z,10.60
2018-06-19T11:21:31.299Z,9.70
2018-06-19T11:23:59.861Z,9.17
2018-06-19T11:26:28.991Z,8.50
2018-06-19T11:28:57.512Z,6.63
2018-06-19T11:31:26.018Z,7.00
2018-06-19T11:33:54.993Z,6.33
2018-06-19T11:36:23.493Z,6.40
2018-06-19T11:38:51.998Z,7.43
2018-06-19T11:41:20.514Z,7.50
2018-06-19T11:43:49.073Z,6.13
2018-06-19T11:46:17.596Z,6.23
2018-06-19T11:48:46.165Z,7.20
2018-06-19T11:51:14.726Z,7.53
2018-06-19T11:53:43.274Z,6.40
2018-06-19T11:56:11.829Z,7.70
2018-06-19T11:58:40.452Z,7.40
2018-06-19T12:01:09.083Z,7.77
2018-06-19T12:03:37.658Z,8.10
2018-06-19T12:06:06.175Z,7.30
2018-06-19T12:08:34.705Z,6.80
2018-06-19T12:11:03.245Z,6.77
2018-06-19T12:13:31.733Z,5.43
2018-06-19T12:16:00.249Z,7.10
2018-06-19T12:18:28.884Z,6.57
2018-06-19T12:20:57.439Z,6.63
2018-06-19T12:23:26.233Z,7.20
2018-06-19T12:25:54.757Z,5.77
2018-06-19T12:28:23.270Z,6.40
2018-06-19T12:30:51.798Z,7.63
2018-06-19T12:33:20.295Z,7.40
2018-06-19T12:35:48.825Z,7.30
2018-06-19T12:38:17.320Z,7.83
2018-06-19T12:40:46.014Z,6.80
2018-06-19T12:43:14.538Z,6.97
2018-06-19T12:45:43.062Z,7.10
2018-06-19T12:48:11.647Z,7.03
2018-06-19T12:51:54.643Z,6.63
2018-06-19T12:54:31.830Z,7.50
2018-06-19T12:57:00.501Z,8.23
2018-06-19T12:59:29.010Z,9.30
2018-06-19T13:01:57.582Z,8.50
2018-06-19T13:04:37.178Z,7.97
2018-06-19T13:07:05.722Z,7.63
2018-06-19T13:09:34.272Z,8.10
2018-06-19T13:12:02.856Z,7.93
2018-06-19T13:14:45.022Z,8.07
2018-06-19T13:17:24.745Z,7.10
2018-06-19T13:20:04.611Z,7.80
2018-06-19T13:22:33.142Z,8.17
2018-06-19T13:25:01.686Z,8.43
2018-06-19T13:27:31.214Z,7.97
2018-06-19T13:30:11.935Z,8.30
2018-06-19T13:32:40.510Z,7.60
2018-06-19T13:35:09.066Z,7.83
2018-06-19T13:37:37.591Z,6.60
2018-06-19T13:41:19.071Z,8.60
2018-06-19T13:44:00.219Z,7.03
2018-06-19T13:46:28.734Z,8.73
2018-06-19T13:48:57.289Z,9.53
2018-06-19T13:51:25.838Z,7.87
2018-06-19T13:53:54.726Z,7.30
2018-06-19T13:57:35.073Z,7.20
2018-06-19T14:00:04.903Z,7.57
2018-06-19T14:02:34.393Z,8.50
2018-06-19T14:05:04.445Z,7.47
2018-06-19T14:07:37.686Z,7.80
2018-06-19T14:10:21.652Z,7.17
2018-06-19T14:13:04.983Z,6.87
2018-06-19T14:15:36.546Z,6.20
2018-06-19T14:18:05.651Z,7.00
2018-06-19T14:20:34.398Z,6.10
2018-06-19T14:23:02.919Z,7.10
2018-06-19T14:25:31.595Z,5.83
2018-06-19T14:28:00.106Z,6.00
2018-06-19T14:30:28.618Z,5.80
2018-06-19T14:32:57.197Z,5.40
2018-06-19T14:35:25.677Z,5.03
2018-06-19T14:37:54.256Z,4.60
2018-06-19T14:40:22.846Z,4.03
2018-06-19T14:42:51.733Z,4.77
2018-06-19T14:45:20.311Z,3.73
2018-06-19T14:47:48.906Z,4.17
2018-06-19T14:50:17.422Z,3.87
2018-06-19T14:52:45.946Z,4.30
2018-06-19T14:55:14.434Z,3.60
2018-06-19T14:57:42.979Z,4.50
2018-06-19T15:00:12.378Z,4.30
2018-06-19T15:02:41.104Z,4.43
2018-06-19T15:05:09.666Z,4.00
2018-06-19T15:07:57.710Z,3.57
2018-06-19T15:10:26.350Z,4.03
2018-06-19T15:12:54.839Z,3.83
2018-06-19T15:15:23.337Z,3.77
2018-06-19T15:17:52.079Z,3.70
2018-06-19T15:20:20.605Z,3.70
2018-06-19T15:22:49.098Z,4.90
2018-06-19T15:25:17.605Z,5.20
2018-06-19T15:27:46.141Z,4.33
2018-06-19T15:30:14.682Z,4.17
2018-06-19T15:32:43.174Z,4.67
2018-06-19T15:35:11.752Z,4.53
2018-06-19T15:37:40.311Z,5.10
2018-06-19T15:40:08.866Z,4.00
2018-06-19T15:42:37.380Z,4.10
2018-06-19T15:45:05.947Z,4.00
2018-06-19T15:47:34.582Z,3.37
2018-06-19T15:50:03.144Z,3.70
2018-06-19T15:52:31.641Z,4.10
2018-06-19T15:55:00.332Z,4.40
2018-06-19T15:57:28.842Z,5.40
2018-06-19T15:59:57.375Z,4.60
2018-06-19T16:02:25.939Z,5.20
2018-06-19T16:04:54.429Z,4.43
2018-06-19T16:07:22.931Z,4.73
2018-06-19T16:09:51.507Z,4.37
2018-06-19T16:12:20.942Z,6.07
2018-06-19T16:14:49.451Z,5.93
2018-06-19T16:17:17.958Z,4.70
2018-06-19T16:19:46.798Z,5.30
2018-06-19T16:22:15.352Z,6.70
2018-06-19T16:24:44.700Z,5.90
2018-06-19T16:27:13.582Z,5.03
2018-06-19T16:29:42.242Z,6.20
2018-06-19T16:32:11.028Z,5.53
2018-06-19T16:34:39.714Z,7.23
2018-06-19T16:37:08.190Z,5.70
2018-06-19T16:39:36.809Z,6.60
2018-06-19T16:42:05.317Z,7.00
2018-06-19T16:44:33.831Z,6.90
2018-06-19T16:47:02.450Z,7.33
2018-06-19T16:49:30.983Z,7.33
2018-06-19T16:51:59.469Z,7.30
2018-06-19T16:54:28.342Z,7.17
2018-06-19T16:56:56.887Z,7.27
2018-06-19T16:59:27.049Z,7.30
2018-06-19T17:01:55.567Z,6.83
2018-06-19T17:04:25.084Z,7.60
2018-06-19T17:06:53.619Z,8.03
2018-06-19T17:09:22.175Z,8.17
2018-06-19T17:11:50.655Z,7.80
2018-06-19T17:14:19.153Z,9.20
2018-06-19T17:16:48.554Z,8.13
2018-06-19T17:19:17.265Z,8.67
2018-06-19T17:21:46.755Z,9.13
2018-06-19T17:24:15.270Z,9.37
2018-06-19T17:26:43.785Z,9.20
2018-06-19T17:29:12.278Z,9.23
2018-06-19T17:31:40.803Z,9.03
2018-06-19T17:34:09.317Z,8.80
2018-06-19T17:36:37.854Z,7.83
2018-06-19T17:39:09.130Z,10.73
2018-06-19T17:41:38.087Z,9.57
2018-06-19T17:44:06.825Z,9.87
2018-06-19T17:46:35.324Z,10.07
2018-06-19T17:49:03.810Z,9.90
2018-06-19T17:51:32.676Z,9.40
2018-06-19T17:54:01.187Z,9.43
2018-06-19T17:56:29.688Z,9.33
2018-06-19T17:58:58.205Z,10.37
2018-06-19T18:01:26.698Z,11.73
2018-06-19T18:03:55.242Z,10.17
2018-06-19T18:06:23.742Z,10.20
2018-06-19T18:08:52.918Z,10.37
2018-06-19T18:11:21.552Z,10.33
2018-06-19T18:13:50.101Z,10.20
2018-06-19T18:16:18.656Z,10.60
2018-06-19T18:18:47.273Z,9.90
2018-06-19T18:21:15.755Z,9.00
2018-06-19T18:23:44.258Z,9.30
2018-06-19T18:26:12.859Z,10.40
2018-06-19T18:28:41.346Z,9.80
2018-06-19T18:31:09.874Z,11.20
2018-06-19T18:33:38.606Z,11.27
2018-06-19T18:36:07.485Z,8.93
2018-06-19T18:38:36.073Z,10.10
2018-06-19T18:41:04.652Z,10.73
2018-06-19T18:43:33.141Z,10.67
2018-06-19T18:46:02.045Z,9.73
2018-06-19T18:48:30.509Z,9.93
2018-06-19T18:50:59.405Z,10.67
2018-06-19T18:53:27.986Z,10.67
2018-06-19T18:55:57.105Z,10.60
2018-06-19T18:58:26.038Z,11.97
2018-06-19T19:00:54.529Z,11.27
2018-06-19T19:03:27.959Z,12.53
2018-06-19T19:05:56.489Z,12.60
2018-06-19T19:08:25.836Z,11.70
2018-06-19T19:10:55.797Z,11.83
2018-06-19T19:13:25.522Z,11.33
2018-06-19T19:15:59.276Z,12.20
2018-06-19T19:18:33.042Z,11.50
2018-06-19T19:21:02.021Z,11.30
2018-06-19T19:23:31.057Z,12.40
2018-06-19T19:25:59.661Z,12.70
2018-06-19T19:28:33.449Z,13.23
2018-06-19T19:31:02.146Z,13.00
2018-06-19T19:33:30.749Z,13.13
2018-06-19T19:35:59.221Z,12.80
2018-06-19T19:38:33.085Z,12.73
2018-06-19T19:41:01.594Z,12.70
2018-06-19T19:43:30.226Z,14.30
2018-06-19T19:45:58.708Z,13.90
2018-06-19T19:48:32.432Z,13.63
2018-06-19T19:51:00.901Z,13.73
2018-06-19T19:53:29.431Z,12.97
2018-06-19T19:56:03.440Z,13.70
2018-06-19T19:58:37.192Z,13.67
2018-06-19T20:01:05.835Z,14.17
2018-06-19T20:03:34.328Z,13.27
2018-06-19T20:06:02.857Z,13.30
2018-06-19T20:08:31.435Z,13.87
2018-06-19T20:10:59.962Z,15.20
2018-06-19T20:13:28.468Z,15.57
2018-06-19T20:15:56.934Z,13.10
2018-06-19T20:18:25.430Z,15.00
2018-06-19T20:20:53.906Z,14.23
2018-06-19T20:23:22.421Z,13.70
2018-06-19T20:25:50.909Z,13.73
2018-06-19T20:28:19.401Z,14.50
2018-06-19T20:30:47.914Z,14.70
2018-06-19T20:33:16.521Z,14.10
2018-06-19T20:35:45.013Z,14.67
2018-06-19T20:38:13.469Z,13.60
2018-06-19T20:40:42.037Z,14.50
2018-06-19T20:43:10.595Z,15.60
2018-06-19T20:45:39.082Z,14.80
2018-06-19T20:48:07.628Z,15.70
2018-06-19T20:50:36.097Z,15.27
2018-06-19T20:53:04.656Z,13.77
2018-06-19T20:55:33.517Z,14.27
2018-06-19T20:58:02.010Z,15.80
2018-06-19T21:00:30.477Z,17.20
2018-06-19T21:02:59.205Z,15.20
2018-06-19T21:05:27.780Z,16.20
2018-06-19T21:07:56.383Z,15.90
2018-06-19T21:10:25.001Z,16.47
2018-06-19T21:12:53.642Z,16.13
2018-06-19T21:15:22.334Z,15.47
2018-06-19T21:17:50.942Z,15.73
2018-06-19T21:20:19.539Z,15.03
2018-06-19T21:22:48.105Z,13.77
2018-06-19T21:25:16.717Z,16.53
2018-06-19T21:27:45.385Z,14.57
2018-06-19T21:30:13.941Z,15.37
2018-06-19T21:32:42.516Z,15.80
2018-06-19T21:35:11.124Z,15.70
2018-06-19T21:37:39.735Z,16.97
2018-06-19T21:40:08.320Z,17.00
2018-06-19T21:42:36.926Z,16.50
2018-06-19T21:45:05.511Z,17.70
2018-06-19T21:47:34.088Z,16.87
2018-06-19T21:50:02.738Z,17.40
2018-06-19T21:52:31.342Z,16.97
2018-06-19T21:55:00.057Z,18.20
2018-06-19T21:57:28.612Z,19.00
2018-06-19T21:59:57.178Z,17.70
2018-06-19T22:02:30.921Z,16.73
2018-06-19T22:04:59.681Z,17.77
2018-06-19T22:07:28.301Z,16.70
2018-06-19T22:09:56.854Z,17.70
2018-06-19T22:12:25.447Z,17.30
2018-06-19T22:14:54.099Z,16.93
2018-06-19T22:17:22.699Z,16.37
2018-06-19T22:19:51.286Z,17.17
2018-06-19T22:22:20.135Z,15.43
2018-06-19T22:24:50.649Z,15.90
2018-06-19T22:27:19.317Z,16.73
2018-06-19T22:29:47.872Z,15.10
2018-06-19T22:32:16.483Z,15.17
2018-06-19T22:34:45.097Z,15.63
2018-06-19T22:37:14.337Z,15.33
2018-06-19T22:39:42.933Z,15.00
2018-06-19T22:42:11.513Z,14.13
2018-06-19T22:44:40.146Z,15.23
2018-06-19T22:47:08.721Z,13.90
2018-06-19T22:49:37.373Z,14.33
2018-06-19T22:52:05.962Z,14.50
2018-06-19T22:54:34.505Z,14.90
2018-06-19T22:57:03.166Z,15.00
2018-06-19T22:59:31.732Z,14.03
2018-06-19T23:02:00.307Z,12.70
2018-06-19T23:04:28.884Z,15.23
2018-06-19T23:06:57.441Z,14.03
2018-06-19T23:09:26.114Z,14.47
2018-06-19T23:11:54.682Z,14.57
2018-06-19T23:14:23.237Z,13.50
2018-06-19T23:16:51.878Z,12.73
2018-06-19T23:19:20.450Z,14.23
2018-06-19T23:21:49.005Z,13.30
2018-06-19T23:24:17.651Z,13.53
2018-06-19T23:26:46.345Z,15.23
2018-06-19T23:29:14.926Z,14.37
2018-06-19T23:31:43.537Z,12.93
2018-06-19T23:34:12.149Z,13.47
2018-06-19T23:36:40.729Z,12.70
2018-06-19T23:39:10.075Z,14.50
2018-06-19T23:41:38.729Z,13.67
2018-06-19T23:44:07.335Z,15.10
2018-06-19T23:46:35.905Z,13.60
2018-06-19T23:49:04.546Z,12.60
2018-06-19T23:51:33.101Z,14.40
2018-06-19T23:54:01.730Z,13.33
2018-06-19T23:56:30.317Z,14.27
2018-06-19T23:58:58.942Z,13.90
